Time;durP1;ratioP1;P1;durP2;ratioP2;P2;SDS_P1;SDS_P2;PMS_P1;PMS_P2;Temp;Humidity;BMP_temperature;BMP_pressure;BME280_temperature;BME280_humidity;BME280_pressure;Samples;Min_cycle;Max_cycle;Signal;HPM_P1;HPM_P2
2023/06/03 00:01:17;;;;;;;;;11.00;10.00;;;;;16.90;50.33;101276.72;4980379;28;45654;-78
2023/06/03 00:03:44;;;;;;;;;14.33;12.00;;;;;17.04;50.73;101297.53;4962382;28;47564;-78
2023/06/03 00:06:10;;;;;;;;;12.67;11.67;;;;;16.98;51.22;101295.50;4963271;28;45667;-79
2023/06/03 00:08:35;;;;;;;;;16.33;12.67;;;;;16.81;51.29;101270.53;4980080;28;45399;-78
2023/06/03 00:11:00;;;;;;;;;16.67;16.33;;;;;16.90;51.57;101290.16;4962555;28;45362;-77
2023/06/03 00:13:26;;;;;;;;;15.67;14.33;;;;;16.99;51.50;101291.81;4962056;28;47623;-77
2023/06/03 00:15:51;;;;;;;;;14.00;12.67;;;;;16.98;51.44;101296.34;4962363;28;45487;-78
2023/06/03 00:18:17;;;;;;;;;11.67;11.67;;;;;16.93;51.77;101289.81;4978247;28;45577;-79
2023/06/03 00:20:47;;;;;;;;;13.33;12.33;;;;;16.86;52.25;101297.72;4961680;28;45441;-78
2023/06/03 00:23:16;;;;;;;;;15.67;12.33;;;;;16.86;52.63;101304.94;4978750;28;45907;-78
2023/06/03 00:25:42;;;;;;;;;15.67;14.00;;;;;16.60;52.59;101267.53;4960959;28;46237;-77
2023/06/03 00:28:07;;;;;;;;;11.67;10.67;;;;;16.71;52.57;101289.53;4978841;28;45358;-78
2023/06/03 00:30:33;;;;;;;;;17.00;13.67;;;;;16.75;52.92;101300.75;4979149;28;45272;-78
2023/06/03 00:32:58;;;;;;;;;11.33;11.33;;;;;16.56;53.16;101277.78;4978606;28;45601;-77
2023/06/03 00:35:24;;;;;;;;;16.33;13.33;;;;;16.28;53.75;101241.59;4978443;28;45405;-79
2023/06/03 00:37:49;;;;;;;;;16.33;12.67;;;;;16.60;53.49;101291.69;4978652;28;45238;-78
2023/06/03 00:40:15;;;;;;;;;14.33;13.67;;;;;16.40;53.61;101253.63;4961306;28;45300;-78
2023/06/03 00:42:40;;;;;;;;;17.00;13.67;;;;;16.47;53.81;101268.06;4978444;28;46326;-78
2023/06/03 00:45:06;;;;;;;;;16.33;13.67;;;;;16.37;53.68;101257.50;4979468;28;45258;-78
2023/06/03 00:47:32;;;;;;;;;17.67;12.00;;;;;16.40;54.33;101267.03;4979090;28;45350;-78
2023/06/03 00:49:57;;;;;;;;;15.67;15.67;;;;;16.40;54.68;101278.63;4978497;28;45401;-77
2023/06/03 00:52:24;;;;;;;;;18.00;15.67;;;;;16.33;54.79;101266.06;4978484;28;46324;-78
2023/06/03 00:54:51;;;;;;;;;16.00;15.00;;;;;16.39;54.84;101278.78;4960650;28;46035;-77
2023/06/03 00:57:19;;;;;;;;;16.67;13.67;;;;;16.26;54.91;101265.91;4959558;28;45319;-77
2023/06/03 00:59:44;;;;;;;;;18.33;15.67;;;;;16.32;54.82;101278.63;4978212;28;45199;-77
2023/06/03 01:02:12;;;;;;;;;12.33;12.33;;;;;16.11;55.61;101236.22;4972017;28;54272;-78
2023/06/03 01:04:38;;;;;;;;;17.00;14.67;;;;;15.77;55.37;101193.47;4975948;28;46131;-77
2023/06/03 01:07:12;;;;;;;;;18.33;15.33;;;;;16.20;55.67;101277.28;4958697;28;45430;-77
2023/06/03 01:10:12;;;;;;;;;20.33;16.67;;;;;15.74;55.72;101206.38;4960655;28;45406;-78
2023/06/03 01:12:50;;;;;;;;;14.67;14.67;;;;;16.17;56.11;101271.41;4977080;28;46159;-76
2023/06/03 01:15:20;;;;;;;;;20.33;16.67;;;;;16.13;55.97;101258.34;4961001;28;45302;-77
2023/06/03 01:17:49;;;;;;;;;18.00;14.33;;;;;16.18;56.48;101265.03;4978348;28;45378;-78
2023/06/03 01:20:16;;;;;;;;;15.67;15.33;;;;;16.12;56.34;101264.72;4976375;28;45551;-78
2023/06/03 01:22:44;;;;;;;;;19.67;16.33;;;;;16.13;56.28;101268.25;4976571;28;48722;-78
2023/06/03 01:25:11;;;;;;;;;14.33;11.00;;;;;16.04;56.18;101245.13;4977656;28;45570;-77
2023/06/03 01:27:40;;;;;;;;;18.33;15.67;;;;;15.59;56.17;101167.81;4976727;28;45247;-78
2023/06/03 01:30:08;;;;;;;;;19.67;19.67;;;;;16.10;56.25;101244.44;4976440;28;45707;-78
2023/06/03 01:32:35;;;;;;;;;17.33;15.67;;;;;16.13;56.71;101270.91;4977744;28;45533;-77
2023/06/03 01:35:01;;;;;;;;;21.00;18.00;;;;;16.08;56.60;101263.38;4977690;28;45458;-77
2023/06/03 01:37:27;;;;;;;;;20.67;17.33;;;;;16.08;56.45;101251.81;4960319;28;45325;-78
2023/06/03 01:39:54;;;;;;;;;17.00;13.33;;;;;16.07;56.48;101244.78;4977951;28;45515;-77
2023/06/03 01:42:20;;;;;;;;;16.00;14.33;;;;;16.01;56.33;101240.91;4977846;28;46045;-77
2023/06/03 01:44:46;;;;;;;;;18.33;16.00;;;;;16.01;56.44;101248.94;4978198;28;45336;-77
2023/06/03 01:47:11;;;;;;;;;19.67;16.67;;;;;16.02;56.65;101242.59;4977970;28;45389;-78
2023/06/03 01:49:37;;;;;;;;;22.00;17.33;;;;;16.03;56.67;101248.81;4977478;28;45328;-76
2023/06/03 01:52:03;;;;;;;;;13.33;8.33;;;;;16.05;56.50;101247.63;4977601;28;45749;-76
2023/06/03 01:54:29;;;;;;;;;16.67;16.67;;;;;16.06;56.70;101260.03;4977407;28;45473;-77
2023/06/03 01:56:56;;;;;;;;;21.00;20.00;;;;;15.93;56.88;101232.88;4976279;28;45321;-79
2023/06/03 01:59:23;;;;;;;;;17.33;17.00;;;;;16.09;56.76;101273.09;4978252;28;46433;-77
2023/06/03 02:01:52;;;;;;;;;17.67;17.67;;;;;15.69;57.24;101198.84;4977431;28;48843;-77
2023/06/03 02:04:18;;;;;;;;;16.67;11.00;;;;;15.98;57.15;101257.31;4960354;28;46288;-77
2023/06/03 02:06:51;;;;;;;;;19.00;16.33;;;;;15.84;56.98;101233.88;4977973;28;45392;-76
2023/06/03 02:09:17;;;;;;;;;18.67;18.00;;;;;15.96;56.97;101253.97;4981991;28;45339;-75
2023/06/03 02:11:43;;;;;;;;;19.00;16.00;;;;;16.00;57.09;101260.69;4982950;28;48419;-77
2023/06/03 02:14:11;;;;;;;;;20.00;16.67;;;;;15.90;57.36;101253.81;4984027;28;45448;-76
2023/06/03 02:16:37;;;;;;;;;19.00;18.67;;;;;16.00;57.71;101260.69;4983823;28;45520;-77
2023/06/03 02:19:06;;;;;;;;;20.33;18.33;;;;;16.00;57.28;101255.31;4966272;28;45566;-77
2023/06/03 02:21:31;;;;;;;;;19.67;17.33;;;;;15.77;57.79;101227.47;4983700;28;45859;-75
2023/06/03 02:23:56;;;;;;;;;17.33;16.33;;;;;15.92;57.81;101251.81;4965483;28;57816;-76
2023/06/03 02:26:22;;;;;;;;;18.67;16.33;;;;;15.75;57.88;101234.84;4983778;28;45500;-78
2023/06/03 02:28:47;;;;;;;;;18.33;16.33;;;;;15.75;58.26;101242.91;4984103;28;45355;-76
2023/06/03 02:31:12;;;;;;;;;19.33;19.00;;;;;15.69;58.02;101227.47;4982132;28;48762;-77
2023/06/03 02:33:38;;;;;;;;;19.33;18.00;;;;;15.49;58.09;101186.72;4965698;28;45287;-77
2023/06/03 02:36:04;;;;;;;;;26.67;21.00;;;;;15.76;58.22;101242.72;4983586;28;50449;-76
2023/06/03 02:38:30;;;;;;;;;23.67;18.00;;;;;15.78;58.62;101245.25;4966715;28;45373;-77
2023/06/03 02:40:55;;;;;;;;;22.00;19.67;;;;;15.69;58.45;101231.00;4966649;28;47286;-75
2023/06/03 02:43:21;;;;;;;;;15.67;15.67;;;;;15.73;58.73;101247.59;4983989;28;45304;-76
2023/06/03 02:45:46;;;;;;;;;17.67;17.33;;;;;15.74;58.59;101260.00;4966171;28;45393;-77
2023/06/03 02:48:11;;;;;;;;;18.67;17.00;;;;;15.68;59.11;101257.97;4983999;28;45416;-78
2023/06/03 02:50:36;;;;;;;;;21.00;18.00;;;;;15.56;58.88;101241.31;4983100;28;45813;-76
2023/06/03 02:53:02;;;;;;;;;16.67;15.00;;;;;15.45;58.93;101231.75;4982904;28;57163;-76
2023/06/03 02:55:27;;;;;;;;;17.67;17.67;;;;;15.56;59.13;101251.19;4965647;28;45445;-78
2023/06/03 02:57:53;;;;;;;;;19.67;18.33;;;;;15.53;59.46;101245.16;4983679;28;45433;-77
2023/06/03 03:00:18;;;;;;;;;16.67;15.67;;;;;15.55;59.43;101249.53;4965868;28;49124;-77
2023/06/03 03:02:44;;;;;;;;;19.33;18.00;;;;;15.59;59.11;101253.59;4965858;28;45461;-77
2023/06/03 03:05:10;;;;;;;;;22.33;18.33;;;;;15.48;59.25;101239.47;4965776;28;45286;-76
2023/06/03 03:07:37;;;;;;;;;23.67;20.00;;;;;15.49;59.14;101243.81;4984418;28;45386;-76
2023/06/03 03:10:04;;;;;;;;;26.00;20.00;;;;;15.51;59.56;101247.19;4985260;28;46474;-78
2023/06/03 03:12:29;;;;;;;;;20.00;18.33;;;;;15.53;59.38;101252.38;4983306;28;46242;-78
2023/06/03 03:14:56;;;;;;;;;23.33;22.67;;;;;15.51;59.70;101244.50;4965874;28;45378;-78
2023/06/03 03:17:21;;;;;;;;;21.33;18.33;;;;;15.57;59.78;101256.41;4965721;28;45596;-77
2023/06/03 03:19:46;;;;;;;;;19.00;16.67;;;;;15.42;59.26;101228.59;4962536;28;47938;-77
2023/06/03 03:22:12;;;;;;;;;23.67;18.67;;;;;15.11;59.41;101180.09;4979937;28;45242;-76
2023/06/03 03:24:37;;;;;;;;;22.00;18.67;;;;;15.46;60.05;101257.56;4980156;28;45401;-76
2023/06/03 03:27:03;;;;;;;;;26.00;24.33;;;;;15.43;59.72;101252.53;4962670;28;45240;-76
2023/06/03 03:29:29;;;;;;;;;27.67;23.67;;;;;15.35;60.54;101257.84;4979603;28;45944;-75
2023/06/03 03:32:04;;;;;;;;;18.67;17.67;;;;;14.83;60.15;101185.69;4961885;28;45370;-77
2023/06/03 03:34:30;;;;;;;;;22.00;18.00;;;;;15.24;60.71;101254.63;4979310;28;45334;-78
2023/06/03 03:36:55;;;;;;;;;24.67;23.67;;;;;15.13;60.65;101237.00;4980125;28;45235;-77
2023/06/03 03:39:20;;;;;;;;;19.67;15.33;;;;;15.19;60.65;101257.78;4962678;28;47797;-76
2023/06/03 03:41:46;;;;;;;;;21.33;21.33;;;;;15.11;60.91;101255.09;4979360;28;45871;-77
2023/06/03 03:44:12;;;;;;;;;23.67;20.33;;;;;15.10;60.65;101245.38;4979596;28;45492;-76
2023/06/03 03:46:40;;;;;;;;;21.33;18.67;;;;;15.06;60.82;101260.09;4979818;28;45491;-77
2023/06/03 03:49:06;;;;;;;;;23.67;20.33;;;;;14.34;61.01;101140.91;4979128;28;46443;-76
2023/06/03 03:51:34;;;;;;;;;18.67;18.00;;;;;14.94;61.08;101256.84;4979105;28;45235;-75
2023/06/03 03:53:59;;;;;;;;;21.00;19.00;;;;;14.90;61.53;101263.53;4961892;28;45582;-76
2023/06/03 03:56:25;;;;;;;;;23.67;16.67;;;;;14.83;61.83;101265.16;4979334;28;45284;-76
2023/06/03 03:58:52;;;;;;;;;24.00;21.33;;;;;14.83;61.70;101255.28;4979062;28;46422;-77
2023/06/03 04:01:22;;;;;;;;;28.00;21.00;;;;;14.80;62.00;101257.41;4979521;28;45554;-78
2023/06/03 04:03:51;;;;;;;;;21.33;17.00;;;;;14.69;61.80;101247.84;4979460;28;45208;-77
2023/06/03 04:06:38;;;;;;;;;19.67;19.33;;;;;14.77;62.23;101263.94;4979495;28;45584;-79
2023/06/03 04:09:08;;;;;;;;;28.33;26.00;;;;;14.74;62.12;101269.63;4961518;28;46681;-79
2023/06/03 04:11:40;;;;;;;;;16.67;15.67;;;;;14.16;61.57;101159.69;4977763;28;45349;-77
2023/06/03 04:14:08;;;;;;;;;20.33;17.33;;;;;14.78;62.22;101260.25;4979125;28;46051;-77
2023/06/03 04:16:48;;;;;;;;;22.33;20.33;;;;;14.82;61.86;101261.66;4977925;28;45287;-78
2023/06/03 04:19:18;;;;;;;;;18.00;17.33;;;;;14.95;61.47;101268.38;4976960;28;48563;-77
2023/06/03 04:21:44;;;;;;;;;19.67;17.67;;;;;14.99;61.51;101270.56;4978844;28;45425;-77
2023/06/03 04:24:10;;;;;;;;;23.33;20.67;;;;;14.99;61.24;101253.66;4978436;28;45432;-76
2023/06/03 04:26:36;;;;;;;;;22.67;20.00;;;;;14.89;61.19;101238.59;4978953;28;45503;-76
2023/06/03 04:29:02;;;;;;;;;23.33;22.00;;;;;14.95;61.48;101268.38;4961051;28;48388;-76
2023/06/03 04:31:28;;;;;;;;;19.00;18.00;;;;;14.86;61.42;101244.25;4977389;28;45816;-76
2023/06/03 04:33:53;;;;;;;;;20.00;18.00;;;;;15.09;61.13;101265.97;4976798;28;45560;-76
2023/06/03 04:36:19;;;;;;;;;24.00;24.00;;;;;15.07;61.36;101259.09;4979330;28;45507;-76
2023/06/03 04:38:45;;;;;;;;;21.00;21.00;;;;;15.17;61.10;101274.00;4957833;28;48497;-77
2023/06/03 04:41:11;;;;;;;;;18.00;15.33;;;;;15.24;60.71;101279.59;4959243;28;45548;-77
2023/06/03 04:43:38;;;;;;;;;21.67;19.00;;;;;15.02;60.63;101251.53;4959243;28;45410;-75
2023/06/03 04:46:06;;;;;;;;;25.33;20.33;;;;;15.11;60.72;101265.78;4941583;28;45672;-79
2023/06/03 04:48:33;;;;;;;;;21.67;18.00;;;;;15.07;60.71;101265.28;4957554;28;45897;-75
2023/06/03 04:51:00;;;;;;;;;22.00;20.33;;;;;14.77;60.33;101223.78;4961055;28;46085;-77
2023/06/03 04:53:25;;;;;;;;;22.67;22.33;;;;;15.11;60.86;101284.53;4981460;28;45498;-80
2023/06/03 04:55:51;;;;;;;;;24.00;20.67;;;;;15.15;61.07;101291.25;4969696;28;46049;-78
2023/06/03 04:58:19;;;;;;;;;18.33;17.33;;;;;15.12;61.05;101299.59;4978711;28;45680;-77
2023/06/03 05:00:48;;;;;;;;;24.33;21.67;;;;;15.09;61.37;101299.94;4978589;28;45306;-78
2023/06/03 05:03:16;;;;;;;;;22.33;20.00;;;;;13.71;61.21;101080.53;4980408;28;45491;-79
2023/06/03 05:05:43;;;;;;;;;18.33;17.33;;;;;15.04;61.00;101295.06;4962048;28;45498;-77
2023/06/03 05:08:12;;;;;;;;;25.00;20.33;;;;;15.14;61.01;101305.63;4978222;28;45750;-77
2023/06/03 05:10:37;;;;;;;;;19.00;18.67;;;;;14.07;60.84;101129.41;4960011;28;46465;-78
2023/06/03 05:13:03;;;;;;;;;23.00;22.67;;;;;15.21;61.31;101306.66;4977945;28;45301;-78
2023/06/03 05:15:29;;;;;;;;;21.67;18.67;;;;;15.15;60.84;101299.28;4978457;28;45465;-78
2023/06/03 05:17:55;;;;;;;;;20.00;19.00;;;;;15.14;60.50;101284.22;4976195;28;47863;-77
2023/06/03 05:20:20;;;;;;;;;23.67;20.33;;;;;15.35;60.35;101303.38;4977433;28;45484;-78
2023/06/03 05:22:46;;;;;;;;;24.67;18.33;;;;;15.03;60.18;101261.25;4977031;28;45298;-77
2023/06/03 05:25:12;;;;;;;;;21.00;19.33;;;;;15.21;60.35;101290.59;4961338;28;45604;-78
2023/06/03 05:27:37;;;;;;;;;26.33;20.67;;;;;15.33;60.17;101310.75;4960349;28;47794;-77
2023/06/03 05:30:03;;;;;;;;;18.33;16.33;;;;;15.18;60.30;101277.53;4978266;28;44909;-78
2023/06/03 05:32:28;;;;;;;;;22.00;17.00;;;;;15.29;60.12;101293.31;4980505;28;45220;-80
2023/06/03 05:34:53;;;;;;;;;23.67;21.00;;;;;15.11;59.86;101252.41;4979455;28;45390;-79
2023/06/03 05:37:19;;;;;;;;;22.00;19.67;;;;;15.08;59.72;101236.66;4961543;28;46447;-79
2023/06/03 05:39:44;;;;;;;;;19.33;17.67;;;;;15.44;59.98;101302.44;4978374;28;45303;-78
2023/06/03 05:42:10;;;;;;;;;18.00;16.00;;;;;15.22;60.14;101260.16;4977573;28;45271;-79
2023/06/03 05:44:35;;;;;;;;;22.67;19.67;;;;;15.49;60.05;101297.41;4960832;28;45518;-80
2023/06/03 05:47:00;;;;;;;;;20.67;18.33;;;;;15.45;59.90;101273.81;4978031;28;51970;-78
2023/06/03 05:49:26;;;;;;;;;22.00;19.33;;;;;15.49;59.63;101273.31;4978461;28;45237;-79
2023/06/03 05:51:51;;;;;;;;;19.00;16.00;;;;;15.63;59.67;101284.44;4960243;28;45256;-77
2023/06/03 05:54:17;;;;;;;;;22.67;18.33;;;;;15.42;59.17;101242.81;4978053;28;45620;-77
2023/06/03 05:56:42;;;;;;;;;21.00;18.00;;;;;15.83;58.83;101301.91;4959863;28;47262;-75
2023/06/03 05:59:08;;;;;;;;;25.00;22.00;;;;;15.73;59.02;101269.88;4976500;28;45581;-81
2023/06/03 06:01:35;;;;;;;;;23.33;18.33;;;;;16.23;58.45;101300.28;4977740;28;45399;-78
2023/06/03 06:04:00;;;;;;;;;16.67;14.67;;;;;16.55;57.12;101292.19;4957893;28;45459;-78
2023/06/03 06:06:25;;;;;;;;;22.00;19.33;;;;;16.94;56.65;101289.63;4957970;28;45509;-79
2023/06/03 06:08:51;;;;;;;;;25.67;22.00;;;;;17.33;55.90;101292.34;4957808;28;45339;-78
2023/06/03 06:11:16;;;;;;;;;15.00;14.00;;;;;17.87;54.58;101311.28;4968218;28;45275;-80
2023/06/03 06:13:42;;;;;;;;;16.67;16.00;;;;;17.89;53.23;101231.22;4978711;28;45372;-78
2023/06/03 06:16:07;;;;;;;;;21.67;18.67;;;;;18.33;51.46;101257.44;4958992;28;46349;-77
2023/06/03 06:18:33;;;;;;;;;21.00;17.67;;;;;18.97;51.18;101306.31;4976818;28;45692;-77
2023/06/03 06:20:58;;;;;;;;;18.67;16.00;;;;;19.35;50.60;101303.50;4977031;28;45342;-78
2023/06/03 06:23:25;;;;;;;;;20.00;18.33;;;;;19.66;49.55;101308.69;4977575;28;45279;-78
2023/06/03 06:25:52;;;;;;;;;21.00;14.33;;;;;19.98;48.39;101299.28;4976770;28;46141;-79
2023/06/03 06:28:24;;;;;;;;;20.00;18.00;;;;;20.34;47.84;101294.66;4976607;28;45615;-77
2023/06/03 06:30:54;;;;;;;;;26.33;20.00;;;;;20.81;46.83;101303.13;4976643;28;45493;-77
2023/06/03 06:33:20;;;;;;;;;25.67;19.67;;;;;21.11;45.27;101295.66;4969569;28;45601;-78
2023/06/03 06:35:46;;;;;;;;;21.67;18.67;;;;;21.32;44.80;101305.56;4976354;28;45607;-78
2023/06/03 06:38:13;;;;;;;;;16.67;15.67;;;;;21.42;44.73;101295.19;4976599;28;45421;-74
2023/06/03 06:40:40;;;;;;;;;17.00;15.00;;;;;21.77;44.41;101309.47;4977014;28;45308;-79
2023/06/03 06:43:07;;;;;;;;;21.00;18.33;;;;;22.11;43.50;101306.69;4976612;28;45319;-78
2023/06/03 06:45:36;;;;;;;;;18.00;17.00;;;;;22.38;42.38;101301.28;4961757;28;47392;-75
2023/06/03 06:48:06;;;;;;;;;18.67;18.67;;;;;22.53;41.61;101298.38;4983247;28;45297;-77
2023/06/03 06:50:37;;;;;;;;;20.33;18.00;;;;;22.70;40.64;101310.44;4973320;28;45624;-79
2023/06/03 06:53:03;;;;;;;;;22.33;17.33;;;;;22.83;41.44;101299.63;4968019;28;45436;-78
2023/06/03 06:55:41;;;;;;;;;16.33;15.33;;;;;22.88;40.56;101258.31;4952752;28;45618;-78
2023/06/03 06:58:10;;;;;;;;;17.00;16.00;;;;;23.52;40.09;101312.56;4970895;28;45542;-77
2023/06/03 07:00:37;;;;;;;;;15.00;13.67;;;;;23.75;39.18;101295.75;4981548;28;45379;-78
2023/06/03 07:03:02;;;;;;;;;16.00;15.00;;;;;23.97;38.55;101302.53;4979881;28;45395;-80
2023/06/03 07:05:28;;;;;;;;;16.33;16.00;;;;;24.01;38.09;101269.47;4979515;28;45827;-79
2023/06/03 07:07:53;;;;;;;;;15.67;14.00;;;;;24.33;37.74;101311.09;4978940;28;45400;-79
2023/06/03 07:10:20;;;;;;;;;17.00;14.67;;;;;24.18;37.53;101274.16;4979713;28;45483;-79
2023/06/03 07:12:46;;;;;;;;;14.00;14.00;;;;;24.63;37.11;101297.66;4979564;28;45347;-79
2023/06/03 07:15:12;;;;;;;;;13.33;13.33;;;;;24.93;36.46;101300.50;4979971;28;45552;-78
2023/06/03 07:17:39;;;;;;;;;18.00;15.33;;;;;25.19;35.91;101302.97;4978979;28;45455;-79
2023/06/03 07:20:06;;;;;;;;;15.67;14.00;;;;;25.39;35.90;101289.13;4955732;28;45528;-75
2023/06/03 07:22:32;;;;;;;;;15.33;13.67;;;;;25.72;35.41;101297.72;4978645;28;45577;-76
2023/06/03 07:24:57;;;;;;;;;14.33;13.33;;;;;25.80;34.43;101284.84;4979318;28;46095;-76
2023/06/03 07:27:28;;;;;;;;;13.00;10.67;;;;;25.55;34.86;101244.09;4979832;28;45952;-75
2023/06/03 07:29:57;;;;;;;;;13.67;13.67;;;;;24.82;34.11;101119.84;4979145;28;45508;-76
2023/06/03 07:32:24;;;;;;;;;16.33;15.67;;;;;26.11;34.69;101300.94;4969637;28;45569;-77
2023/06/03 07:34:50;;;;;;;;;15.33;14.33;;;;;25.49;33.70;101147.84;4978270;28;45771;-77
2023/06/03 07:37:17;;;;;;;;;17.33;15.33;;;;;26.66;33.38;101295.25;4978640;28;45307;-76
2023/06/03 07:39:43;;;;;;;;;19.33;16.33;;;;;26.84;33.37;101303.31;4976933;28;45650;-76
2023/06/03 07:42:25;;;;;;;;;15.00;14.33;;;;;27.05;32.91;101290.16;4978843;28;47096;-76
2023/06/03 07:44:50;;;;;;;;;16.67;14.33;;;;;27.34;32.58;101294.56;4969245;28;46019;-77
2023/06/03 07:47:17;;;;;;;;;18.00;14.33;;;;;27.49;32.01;101299.53;4979016;28;45441;-76
2023/06/03 07:49:47;;;;;;;;;18.33;15.33;;;;;26.94;32.22;101183.44;4977855;28;45601;-77
2023/06/03 07:52:17;;;;;;;;;12.00;12.00;;;;;27.75;31.30;101292.69;4980094;28;45541;-78
2023/06/03 07:54:42;;;;;;;;;18.00;16.00;;;;;27.92;31.06;101288.09;4978909;28;48367;-76
2023/06/03 07:57:08;;;;;;;;;18.67;15.33;;;;;28.13;30.71;101292.84;4974001;28;45459;-74
2023/06/03 07:59:33;;;;;;;;;14.67;14.67;;;;;28.29;30.41;101304.06;4978747;28;45609;-75
2023/06/03 08:01:59;;;;;;;;;17.00;16.00;;;;;28.38;31.39;101286.97;4978492;28;45401;-79
2023/06/03 08:04:28;;;;;;;;;14.33;13.33;;;;;28.72;30.50;101292.44;4976992;28;46263;-75
2023/06/03 08:06:55;;;;;;;;;15.00;13.33;;;;;28.90;29.84;101286.72;4977169;28;45236;-77
2023/06/03 08:09:34;;;;;;;;;13.00;11.67;;;;;29.11;29.52;101285.06;4975014;28;45629;-73
2023/06/03 08:12:02;;;;;;;;;13.00;11.33;;;;;29.03;29.14;101239.81;4976312;28;45556;-73
2023/06/03 08:14:30;;;;;;;;;11.67;10.67;;;;;29.54;28.72;101283.44;4974945;28;45788;-74
2023/06/03 08:17:00;;;;;;;;;14.00;13.00;;;;;28.74;29.09;101147.97;4978742;28;45344;-71
2023/06/03 08:19:26;;;;;;;;;14.00;14.00;;;;;29.73;28.06;101292.97;4977156;28;45406;-72
2023/06/03 08:21:52;;;;;;;;;11.00;10.33;;;;;29.92;28.61;101285.19;4978914;28;45239;-74
2023/06/03 08:24:17;;;;;;;;;13.67;12.00;;;;;30.00;28.41;101276.50;4977759;28;46374;-72
2023/06/03 08:26:45;;;;;;;;;15.67;15.67;;;;;30.16;28.34;101277.50;4977638;28;45410;-74
2023/06/03 08:29:12;;;;;;;;;13.33;12.00;;;;;30.31;27.86;101277.63;4978348;28;45972;-76
2023/06/03 08:31:38;;;;;;;;;12.67;12.67;;;;;30.45;27.28;101286.25;4978263;28;45324;-75
2023/06/03 08:34:03;;;;;;;;;13.67;11.00;;;;;30.21;27.32;101259.16;4977361;28;46592;-73
2023/06/03 08:36:30;;;;;;;;;12.67;12.00;;;;;30.12;27.79;101219.59;4977344;28;45471;-75
2023/06/03 08:38:56;;;;;;;;;18.00;16.00;;;;;30.45;27.71;101273.34;4977786;28;45187;-73
2023/06/03 08:41:26;;;;;;;;;16.00;14.67;;;;;30.33;27.32;101272.69;4960341;28;45600;-73
2023/06/03 08:44:01;;;;;;;;;12.00;12.00;;;;;30.43;27.72;101271.94;4975992;28;47983;-72
2023/06/03 08:46:34;;;;;;;;;10.67;10.00;;;;;30.77;27.61;101276.03;4963723;28;45418;-72
2023/06/03 08:49:04;;;;;;;;;13.33;11.00;;;;;31.11;27.28;101264.69;4977153;28;45452;-72
2023/06/03 08:51:43;;;;;;;;;14.00;13.00;;;;;31.32;26.49;101262.88;4960566;28;45559;-73
2023/06/03 08:54:13;;;;;;;;;13.00;9.33;;;;;31.48;26.35;101270.09;4976149;28;46395;-71
2023/06/03 08:56:42;;;;;;;;;11.33;11.33;;;;;31.60;26.49;101256.91;4956438;28;45811;-75
2023/06/03 08:59:11;;;;;;;;;12.33;11.00;;;;;31.83;25.90;101265.75;4955136;28;45445;-74
2023/06/03 09:01:37;;;;;;;;;11.33;10.33;;;;;31.85;24.92;101214.09;4966842;28;45497;-72
2023/06/03 09:04:04;;;;;;;;;11.67;11.67;;;;;32.35;24.88;101255.34;4974608;28;46647;-73
2023/06/03 09:06:30;;;;;;;;;13.00;10.67;;;;;32.17;24.60;101255.06;4976220;28;45541;-74
2023/06/03 09:08:57;;;;;;;;;11.33;10.00;;;;;32.35;25.39;101273.78;4977042;28;45500;-71
2023/06/03 09:11:23;;;;;;;;;8.67;8.00;;;;;32.40;24.71;101198.66;4960220;28;45473;-74
2023/06/03 09:13:52;;;;;;;;;12.00;11.00;;;;;32.82;23.41;101265.19;4972242;28;46832;-73
2023/06/03 09:16:18;;;;;;;;;15.67;14.00;;;;;32.72;23.95;101262.44;4976535;28;45346;-75
2023/06/03 09:18:44;;;;;;;;;12.33;10.33;;;;;33.28;24.12;101267.78;4974857;28;45487;-74
2023/06/03 09:21:10;;;;;;;;;9.33;9.33;;;;;33.86;23.25;101248.75;4977749;28;45393;-75
2023/06/03 09:23:39;;;;;;;;;13.67;11.33;;;;;34.65;22.81;101261.31;4974859;28;45519;-76
2023/06/03 09:26:05;;;;;;;;;12.33;11.67;;;;;35.02;22.12;101270.84;4959884;28;45477;-73
2023/06/03 09:28:30;;;;;;;;;10.00;8.67;;;;;35.10;20.94;101216.88;4977239;28;45421;-75
2023/06/03 09:30:56;;;;;;;;;10.33;9.33;;;;;35.75;20.88;101245.50;4959724;28;45227;-72
2023/06/03 09:33:22;;;;;;;;;8.67;8.67;;;;;36.27;20.76;101260.19;4973298;28;45588;-74
2023/06/03 09:36:10;;;;;;;;;10.33;9.00;;;;;36.55;19.43;101264.66;4977110;28;45601;-75
2023/06/03 09:39:05;;;;;;;;;11.67;10.33;;;;;36.76;19.52;101275.38;4976970;28;45535;-75
2023/06/03 09:41:30;;;;;;;;;10.67;9.67;;;;;36.99;18.62;101266.03;4963611;28;45532;-74
2023/06/03 09:43:56;;;;;;;;;6.33;6.33;;;;;37.15;19.11;101272.91;4976690;28;46738;-75
2023/06/03 09:46:21;;;;;;;;;13.00;10.67;;;;;37.21;18.79;101275.56;4977311;28;45502;-75
2023/06/03 09:48:47;;;;;;;;;12.33;9.33;;;;;36.30;19.58;101229.13;4976393;28;45516;-75
2023/06/03 09:51:12;;;;;;;;;10.67;9.67;;;;;36.10;19.31;101227.53;4978245;28;45506;-75
2023/06/03 09:53:38;;;;;;;;;10.33;9.00;;;;;36.53;19.36;101266.09;4955528;28;47836;-75
2023/06/03 09:56:23;;;;;;;;;8.67;8.67;;;;;36.06;19.25;101267.22;4960075;28;45498;-74
2023/06/03 09:58:51;;;;;;;;;9.00;6.00;;;;;35.57;19.33;101249.94;4975498;28;45500;-80
2023/06/03 10:01:29;;;;;;;;;8.67;8.67;;;;;34.84;20.81;101257.75;4976733;28;45306;-74
2023/06/03 10:03:58;;;;;;;;;8.67;8.67;;;;;33.32;21.77;101197.25;4976294;28;46381;-77
2023/06/03 10:06:24;;;;;;;;;10.00;8.33;;;;;33.01;21.92;101250.81;4954319;28;46967;-76
2023/06/03 10:08:49;;;;;;;;;11.33;10.33;;;;;31.93;23.03;101265.78;4972520;28;45413;-76
2023/06/03 10:11:15;;;;;;;;;7.67;7.00;;;;;30.95;24.00;101265.72;4977078;28;45343;-71
2023/06/03 10:13:41;;;;;;;;;8.33;8.00;;;;;30.23;24.73;101256.97;4975336;28;46245;-77
2023/06/03 10:16:10;;;;;;;;;12.67;10.33;;;;;29.74;25.47;101269.94;4975591;28;46608;-79
2023/06/03 10:18:40;;;;;;;;;9.00;8.00;;;;;29.33;25.65;101265.91;4954894;28;45544;-77
2023/06/03 10:21:14;;;;;;;;;5.67;5.67;;;;;28.58;26.89;101250.91;4969337;28;45389;-77
2023/06/03 10:23:41;;;;;;;;;11.33;8.33;;;;;27.92;27.85;101243.53;4978448;28;47931;-75
2023/06/03 10:26:08;;;;;;;;;8.67;8.67;;;;;27.46;28.72;101240.75;4944253;28;45562;-73
2023/06/03 10:28:35;;;;;;;;;11.00;9.33;;;;;27.09;29.21;101255.84;4975990;28;45385;-75
2023/06/03 10:31:01;;;;;;;;;11.33;11.00;;;;;26.73;29.63;101257.75;4963504;28;45513;-81
2023/06/03 10:33:28;;;;;;;;;11.00;11.00;;;;;26.11;30.19;101240.16;4959113;28;46854;-79
2023/06/03 10:35:57;;;;;;;;;10.33;9.67;;;;;25.85;30.78;101244.97;4966295;28;45204;-82
2023/06/03 10:38:23;;;;;;;;;11.00;10.00;;;;;25.80;31.11;101257.59;4959585;28;45545;-83
2023/06/03 10:40:49;;;;;;;;;10.00;10.00;;;;;25.57;31.42;101241.97;4962132;28;45433;-83
2023/06/03 10:43:15;;;;;;;;;12.67;12.67;;;;;25.31;31.57;101249.44;4978418;28;46578;-73
2023/06/03 10:45:42;;;;;;;;;11.67;11.67;;;;;25.24;31.77;101258.75;4977372;28;45516;-72
2023/06/03 10:48:13;;;;;;;;;9.00;8.00;;;;;24.96;31.81;101246.47;4979698;28;45314;-73
2023/06/03 10:50:47;;;;;;;;;7.00;6.33;;;;;24.79;33.12;101259.00;4962098;28;45596;-73
2023/06/03 10:53:23;;;;;;;;;14.33;10.67;;;;;24.64;33.69;101253.13;4979433;28;45985;-73
2023/06/03 10:56:02;;;;;;;;;11.00;11.00;;;;;24.55;33.81;101266.97;4958455;28;45598;-72
2023/06/03 10:58:28;;;;;;;;;12.33;12.33;;;;;24.51;34.04;101263.06;4960337;28;45543;-72
2023/06/03 11:01:00;;;;;;;;;12.00;10.00;;;;;24.44;34.56;101258.75;4978696;28;45302;-74
2023/06/03 11:03:30;;;;;;;;;13.33;11.00;;;;;24.43;34.48;101262.53;4979276;28;46660;-72
2023/06/03 11:06:26;;;;;;;;;12.33;12.33;;;;;24.38;34.83;101265.06;4979240;28;45429;-73
2023/06/03 11:09:01;;;;;;;;;8.67;8.67;;;;;24.18;34.71;101265.19;4979319;28;45294;-72
2023/06/03 11:11:55;;;;;;;;;15.67;12.00;;;;;24.15;34.71;101254.75;4979402;28;45516;-73